Time;durP1;ratioP1;P1;durP2;ratioP2;P2;SDS_P1;SDS_P2;PMS_P1;PMS_P2;Temp;Humidity;BMP_temperature;BMP_pressure;BME280_temperature;BME280_humidity;BME280_pressure;Samples;Min_cycle;Max_cycle;Signal;HPM_P1;HPM_P2
2021/03/29 00:00:30;;;;;;;11.17;5.90;;;9.80;61.20;;;;;;5072135;28;21164;-72
2021/03/29 00:02:58;;;;;;;11.37;5.67;;;9.80;61.20;;;;;;5065296;28;20430;-72
2021/03/29 00:05:26;;;;;;;11.00;4.93;;;9.70;62.20;;;;;;5080531;28;20434;-72
2021/03/29 00:07:56;;;;;;;8.30;4.13;;;9.70;62.90;;;;;;5082331;28;20422;-72
2021/03/29 00:10:23;;;;;;;9.00;4.33;;;9.70;63.50;;;;;;5071508;28;20453;-72
2021/03/29 00:12:51;;;;;;;7.40;4.07;;;9.60;63.70;;;;;;5071090;28;20524;-73
2021/03/29 00:15:26;;;;;;;6.47;4.27;;;9.60;63.80;;;;;;5071336;28;20520;-72
2021/03/29 00:17:52;;;;;;;7.80;3.77;;;9.50;64.10;;;;;;5086549;28;20988;-72
2021/03/29 00:20:21;;;;;;;10.33;4.10;;;9.50;64.40;;;;;;5070829;28;21290;-71
2021/03/29 00:22:47;;;;;;;8.93;3.97;;;9.40;64.50;;;;;;5070816;28;20418;-71
2021/03/29 00:25:16;;;;;;;6.40;3.70;;;9.40;64.80;;;;;;5066029;28;20454;-73
2021/03/29 00:27:41;;;;;;;7.80;3.20;;;9.30;64.80;;;;;;5061907;28;20425;-72
2021/03/29 00:30:15;;;;;;;8.00;3.53;;;9.40;64.80;;;;;;5070984;28;20426;-72
2021/03/29 00:32:43;;;;;;;7.43;3.53;;;9.40;64.70;;;;;;5068032;28;20200;-70
2021/03/29 00:35:12;;;;;;;7.63;3.60;;;9.40;64.10;;;;;;5070258;28;20527;-72
2021/03/29 00:37:40;;;;;;;10.20;4.13;;;9.30;63.80;;;;;;5070747;28;20448;-73
2021/03/29 00:40:09;;;;;;;9.50;3.87;;;9.30;63.80;;;;;;5071077;28;20421;-71
2021/03/29 00:42:36;;;;;;;5.67;3.33;;;9.30;63.80;;;;;;5070348;28;20409;-71
2021/03/29 00:45:05;;;;;;;7.23;2.80;;;9.30;63.90;;;;;;5070152;28;20768;-72
2021/03/29 00:47:31;;;;;;;7.50;3.60;;;9.40;63.80;;;;;;5069880;28;20484;-73
2021/03/29 00:49:58;;;;;;;6.83;3.10;;;9.30;63.80;;;;;;5070494;28;20418;-72
2021/03/29 00:52:25;;;;;;;12.90;3.93;;;9.30;63.90;;;;;;5067280;28;20196;-71
2021/03/29 00:54:52;;;;;;;5.83;3.20;;;9.30;64.10;;;;;;5070183;28;20541;-72
2021/03/29 00:57:19;;;;;;;5.00;2.83;;;9.20;63.70;;;;;;5069627;28;20418;-72
2021/03/29 00:59:46;;;;;;;8.93;3.07;;;9.20;64.20;;;;;;5062220;28;20909;-73
2021/03/29 01:02:12;;;;;;;5.23;3.77;;;9.30;64.50;;;;;;5057375;28;20430;-72
2021/03/29 01:04:38;;;;;;;17.03;6.90;;;9.20;64.20;;;;;;5069275;28;20298;-72
2021/03/29 01:07:04;;;;;;;6.20;3.53;;;9.20;64.50;;;;;;5065367;28;20451;-72
2021/03/29 01:09:31;;;;;;;8.17;4.07;;;9.20;64.50;;;;;;5070067;28;20448;-72
2021/03/29 01:12:00;;;;;;;4.17;2.80;;;9.20;64.20;;;;;;5068142;28;20802;-70
2021/03/29 01:14:28;;;;;;;5.43;3.10;;;9.20;64.20;;;;;;5069679;28;20507;-72
2021/03/29 01:16:59;;;;;;;6.53;2.80;;;9.20;63.90;;;;;;5069907;28;20909;-72
2021/03/29 01:19:47;;;;;;;5.90;2.93;;;9.10;64.20;;;;;;5070157;28;20560;-72
2021/03/29 01:22:19;;;;;;;9.80;4.00;;;9.20;64.10;;;;;;5071594;28;20494;-71
2021/03/29 01:24:44;;;;;;;6.80;3.30;;;9.10;64.20;;;;;;5074665;28;20426;-71
2021/03/29 01:27:13;;;;;;;4.63;2.83;;;9.00;64.20;;;;;;5079919;28;20453;-72
2021/03/29 01:29:40;;;;;;;6.90;3.60;;;9.00;64.10;;;;;;5076995;28;20179;-72
2021/03/29 01:32:06;;;;;;;3.87;2.60;;;9.00;64.80;;;;;;5075258;28;20473;-71
2021/03/29 01:34:36;;;;;;;7.13;3.10;;;8.90;64.70;;;;;;5073169;28;20482;-72
2021/03/29 01:37:03;;;;;;;4.03;3.00;;;8.90;64.50;;;;;;5072688;28;20857;-73
2021/03/29 01:39:30;;;;;;;6.63;3.50;;;8.90;64.80;;;;;;5069793;28;20473;-71
2021/03/29 01:41:56;;;;;;;9.30;3.03;;;8.80;65.00;;;;;;5068935;28;20440;-72
2021/03/29 01:44:23;;;;;;;4.90;2.93;;;8.80;64.40;;;;;;5070114;28;20418;-70
2021/03/29 01:46:49;;;;;;;4.93;2.73;;;8.80;64.20;;;;;;5069501;28;20419;-70
2021/03/29 01:49:16;;;;;;;8.43;3.73;;;8.70;64.40;;;;;;5070006;28;20429;-72
2021/03/29 01:51:43;;;;;;;8.20;3.37;;;8.70;65.00;;;;;;5070305;28;20520;-71
2021/03/29 01:54:10;;;;;;;5.70;3.57;;;8.70;65.30;;;;;;5070615;28;20797;-70
2021/03/29 01:56:36;;;;;;;5.50;2.60;;;8.70;65.30;;;;;;5070602;28;20422;-69
2021/03/29 01:59:01;;;;;;;5.10;2.90;;;8.60;65.70;;;;;;5068255;28;20569;-73
2021/03/29 02:01:27;;;;;;;7.47;3.33;;;8.60;65.70;;;;;;5057668;28;20180;-73
2021/03/29 02:03:54;;;;;;;5.97;3.33;;;8.60;65.10;;;;;;5070575;28;20191;-72
2021/03/29 02:06:20;;;;;;;8.97;3.10;;;8.70;64.80;;;;;;5069214;28;20454;-71
2021/03/29 02:08:47;;;;;;;7.17;3.43;;;8.60;64.50;;;;;;5066271;28;20462;-71
2021/03/29 02:11:14;;;;;;;7.13;3.10;;;8.60;64.40;;;;;;5069461;28;20426;-70
2021/03/29 02:13:43;;;;;;;5.37;2.93;;;8.50;64.10;;;;;;5069080;28;20441;-72
2021/03/29 02:16:14;;;;;;;6.77;3.60;;;8.60;64.20;;;;;;5065120;28;20450;-68
2021/03/29 02:18:45;;;;;;;5.50;2.63;;;8.50;64.40;;;;;;5068909;28;20852;-70
2021/03/29 02:21:18;;;;;;;4.90;2.63;;;8.50;64.70;;;;;;5073975;28;20422;-71
2021/03/29 02:23:49;;;;;;;3.43;2.27;;;8.50;64.80;;;;;;5075965;28;20792;-70
2021/03/29 02:26:19;;;;;;;4.60;2.30;;;8.50;65.80;;;;;;5072125;28;20451;-71
2021/03/29 02:28:45;;;;;;;4.53;2.70;;;8.50;65.60;;;;;;5077908;28;20430;-71
2021/03/29 02:31:11;;;;;;;5.00;2.40;;;8.50;65.60;;;;;;5074008;28;20939;-69
2021/03/29 02:33:38;;;;;;;3.07;2.30;;;8.50;65.70;;;;;;5075061;28;20936;-70
2021/03/29 02:36:04;;;;;;;8.17;3.13;;;8.50;65.60;;;;;;5076470;28;20524;-68
2021/03/29 02:38:32;;;;;;;4.40;2.70;;;8.50;65.60;;;;;;5076575;28;20496;-71
2021/03/29 02:40:57;;;;;;;7.93;2.50;;;8.40;65.60;;;;;;5070547;28;20427;-68
2021/03/29 02:43:24;;;;;;;7.30;3.20;;;8.40;65.10;;;;;;5073339;28;20784;-71
2021/03/29 02:45:53;;;;;;;5.83;3.23;;;8.40;65.40;;;;;;5074651;28;20218;-71
2021/03/29 02:48:20;;;;;;;7.17;3.53;;;8.30;65.00;;;;;;5074368;28;20925;-71
2021/03/29 02:50:48;;;;;;;9.33;3.33;;;8.20;65.30;;;;;;5073192;28;20454;-71
2021/03/29 02:53:17;;;;;;;7.07;3.30;;;8.20;65.60;;;;;;5072442;28;20848;-71
2021/03/29 02:55:44;;;;;;;6.83;3.70;;;8.20;66.10;;;;;;5072494;28;20476;-69
2021/03/29 02:58:12;;;;;;;6.40;3.27;;;8.20;66.10;;;;;;5072895;28;20549;-71
2021/03/29 03:00:38;;;;;;;4.77;2.87;;;8.20;66.10;;;;;;5060472;28;20431;-71
2021/03/29 03:03:06;;;;;;;7.70;3.03;;;8.20;65.80;;;;;;5072244;28;20426;-70
2021/03/29 03:05:35;;;;;;;5.27;3.30;;;8.10;65.60;;;;;;5074187;28;20453;-70
2021/03/29 03:08:03;;;;;;;3.80;2.80;;;8.10;65.70;;;;;;5072779;28;20963;-70
2021/03/29 03:10:30;;;;;;;7.33;3.10;;;8.00;66.60;;;;;;5073728;28;21280;-71
2021/03/29 03:12:57;;;;;;;5.70;3.10;;;7.90;67.20;;;;;;5073331;28;20913;-69
2021/03/29 03:15:27;;;;;;;5.00;3.00;;;7.90;67.70;;;;;;5073382;28;20468;-70
2021/03/29 03:17:57;;;;;;;4.30;3.20;;;7.90;68.20;;;;;;5073718;28;20464;-71
2021/03/29 03:20:24;;;;;;;5.37;2.83;;;7.90;68.30;;;;;;5073530;28;20430;-70
2021/03/29 03:22:59;;;;;;;7.03;3.40;;;7.90;68.20;;;;;;5073595;28;20449;-68
2021/03/29 03:25:26;;;;;;;7.27;2.90;;;7.90;68.30;;;;;;5073544;28;20445;-72
2021/03/29 03:27:53;;;;;;;5.70;3.70;;;7.80;68.30;;;;;;5071239;28;20959;-70
2021/03/29 03:30:31;;;;;;;4.50;3.03;;;7.80;68.30;;;;;;5072291;28;20512;-73
2021/03/29 03:32:58;;;;;;;5.10;2.60;;;7.80;68.20;;;;;;5071009;28;20434;-71
2021/03/29 03:35:27;;;;;;;5.83;3.10;;;7.80;68.20;;;;;;5071606;28;20454;-70
2021/03/29 03:38:01;;;;;;;7.00;3.00;;;7.80;68.00;;;;;;5069239;28;20467;-71
2021/03/29 03:40:28;;;;;;;7.43;3.30;;;7.70;68.50;;;;;;5070707;28;20479;-72
2021/03/29 03:43:03;;;;;;;7.30;3.33;;;7.70;68.50;;;;;;5069979;28;20446;-73
2021/03/29 03:45:36;;;;;;;4.00;2.70;;;7.60;69.10;;;;;;5070336;28;20582;-72
2021/03/29 03:48:03;;;;;;;7.07;3.17;;;7.60;69.10;;;;;;5066779;28;20450;-70
2021/03/29 03:50:30;;;;;;;6.67;2.80;;;7.50;69.10;;;;;;5064563;28;20430;-70
2021/03/29 03:52:56;;;;;;;6.03;3.10;;;7.50;69.20;;;;;;5069964;28;20461;-71
2021/03/29 03:55:23;;;;;;;6.53;2.73;;;7.50;69.20;;;;;;5071324;28;20454;-72
2021/03/29 03:57:49;;;;;;;4.77;2.60;;;7.50;69.40;;;;;;5066100;28;20467;-71
2021/03/29 04:00:17;;;;;;;5.23;2.73;;;7.50;68.80;;;;;;5051920;28;20833;-72
2021/03/29 04:02:50;;;;;;;6.80;3.20;;;7.40;69.80;;;;;;5062944;28;20943;-72
2021/03/29 04:05:16;;;;;;;5.67;3.00;;;7.40;69.80;;;;;;5070921;28;20802;-71
2021/03/29 04:07:43;;;;;;;5.47;3.50;;;7.40;70.10;;;;;;5060215;28;20835;-71
2021/03/29 04:12:44;;;;;;;8.87;3.57;;;7.40;69.80;;;;;;5071284;28;20422;-73
2021/03/29 04:15:10;;;;;;;4.83;3.10;;;7.40;69.80;;;;;;5071104;28;20453;-70
2021/03/29 04:17:36;;;;;;;7.43;2.77;;;7.40;69.80;;;;;;5072003;28;21148;-72
2021/03/29 04:20:04;;;;;;;7.33;2.83;;;7.40;69.70;;;;;;5071289;28;20552;-72
2021/03/29 04:22:30;;;;;;;5.97;3.37;;;7.40;69.50;;;;;;5071044;28;20184;-71
2021/03/29 04:24:56;;;;;;;6.57;3.60;;;7.40;69.50;;;;;;5086357;28;20652;-72
2021/03/29 04:27:22;;;;;;;5.37;3.23;;;7.40;69.70;;;;;;5069367;28;20544;-73
2021/03/29 04:29:48;;;;;;;4.50;2.93;;;7.40;69.80;;;;;;5070954;28;20191;-71
2021/03/29 04:32:13;;;;;;;5.57;3.10;;;7.50;69.50;;;;;;5071313;28;20265;-73
2021/03/29 04:34:39;;;;;;;4.90;3.13;;;7.50;69.40;;;;;;5070998;28;20207;-71
2021/03/29 04:37:05;;;;;;;5.77;3.00;;;7.50;69.10;;;;;;5070720;28;20430;-71
2021/03/29 04:39:31;;;;;;;5.17;2.90;;;7.60;69.10;;;;;;5069040;28;20275;-72
2021/03/29 04:41:57;;;;;;;6.00;3.40;;;7.60;68.90;;;;;;5070679;28;20203;-71
2021/03/29 04:44:22;;;;;;;4.20;2.90;;;7.70;68.50;;;;;;5071904;28;20513;-71
2021/03/29 04:46:48;;;;;;;5.70;3.40;;;7.70;68.00;;;;;;5070140;28;20920;-72
2021/03/29 04:49:14;;;;;;;6.37;3.50;;;7.80;67.60;;;;;;5070342;28;20187;-72
2021/03/29 04:51:40;;;;;;;9.70;3.20;;;7.90;67.20;;;;;;5068948;28;20736;-71
2021/03/29 04:54:06;;;;;;;4.17;2.60;;;7.90;66.70;;;;;;5070405;28;20422;-71
2021/03/29 04:56:33;;;;;;;4.43;2.93;;;7.90;66.40;;;;;;5068587;28;20223;-72
2021/03/29 04:58:59;;;;;;;6.10;2.80;;;7.90;66.40;;;;;;5070357;28;21169;-72
2021/03/29 05:01:25;;;;;;;7.70;3.10;;;7.90;65.70;;;;;;5056316;28;20950;-71
2021/03/29 05:03:50;;;;;;;7.50;3.43;;;8.00;64.80;;;;;;5074056;28;20425;-71
2021/03/29 05:06:16;;;;;;;5.37;3.10;;;8.00;64.80;;;;;;5072947;28;20750;-73
2021/03/29 05:08:42;;;;;;;6.27;3.00;;;8.00;64.10;;;;;;5068092;28;20449;-72
2021/03/29 05:11:10;;;;;;;5.57;2.93;;;8.00;63.90;;;;;;5071104;28;20198;-72
2021/03/29 05:13:35;;;;;;;4.03;2.90;;;8.00;64.40;;;;;;5071326;28;20188;-72
2021/03/29 05:16:02;;;;;;;10.67;3.30;;;7.90;64.80;;;;;;5071516;28;20515;-71
2021/03/29 05:18:27;;;;;;;6.90;3.27;;;7.90;65.30;;;;;;5071441;28;20238;-71
2021/03/29 05:20:54;;;;;;;6.00;3.40;;;7.90;65.80;;;;;;5070104;28;20510;-71
2021/03/29 05:23:21;;;;;;;6.60;3.37;;;7.80;66.40;;;;;;5066686;28;20204;-71
2021/03/29 05:25:47;;;;;;;6.10;3.60;;;7.80;66.90;;;;;;5069502;28;20762;-71
2021/03/29 05:28:13;;;;;;;4.70;3.00;;;7.90;66.40;;;;;;5069614;28;20430;-72
2021/03/29 05:30:38;;;;;;;5.37;3.10;;;7.90;66.30;;;;;;5070122;28;20525;-70
2021/03/29 05:33:04;;;;;;;11.63;3.40;;;7.90;65.70;;;;;;5068399;28;20426;-71
2021/03/29 05:35:31;;;;;;;8.43;3.50;;;8.00;65.60;;;;;;5069777;28;20227;-71
2021/03/29 05:37:57;;;;;;;4.67;3.57;;;8.10;65.40;;;;;;5069200;28;20515;-70
2021/03/29 05:40:22;;;;;;;6.17;3.33;;;8.10;65.70;;;;;;5069726;28;20798;-72
2021/03/29 05:42:50;;;;;;;7.97;3.93;;;8.20;65.40;;;;;;5070280;28;20205;-71
2021/03/29 05:45:17;;;;;;;8.43;3.80;;;8.10;64.80;;;;;;5070512;28;20211;-72
2021/03/29 05:47:43;;;;;;;7.83;3.60;;;8.20;64.50;;;;;;5068270;28;20426;-72
2021/03/29 05:50:16;;;;;;;6.60;3.33;;;8.20;64.50;;;;;;5069847;28;20468;-72
2021/03/29 05:52:43;;;;;;;5.27;3.20;;;8.20;64.40;;;;;;5068299;28;20434;-71
2021/03/29 05:55:15;;;;;;;16.10;4.97;;;8.20;64.50;;;;;;5070685;28;20453;-71
2021/03/29 06:00:46;;;;;;;12.80;5.20;;;8.20;64.80;;;;;;5059905;28;20925;-72
2021/03/29 06:03:39;;;;;;;13.17;4.87;;;8.20;64.80;;;;;;5021153;28;20456;-72
2021/03/29 06:06:14;;;;;;;9.17;3.90;;;8.20;65.10;;;;;;5016707;28;20497;-72
2021/03/29 06:08:48;;;;;;;10.40;4.40;;;8.40;65.00;;;;;;5013491;28;20466;-72
2021/03/29 06:11:48;;;;;;;6.57;3.50;;;8.50;64.20;;;;;;5021510;28;20451;-72
2021/03/29 06:14:23;;;;;;;11.63;4.50;;;8.60;63.70;;;;;;4941126;29;20457;-72
2021/03/29 06:17:01;;;;;;;26.80;6.00;;;8.70;63.10;;;;;;4949258;29;20457;-69
2021/03/29 06:19:35;;;;;;;30.23;6.40;;;8.70;63.40;;;;;;4932523;29;20959;-71
2021/03/29 06:22:08;;;;;;;12.27;4.10;;;8.80;63.40;;;;;;4950383;29;20511;-72
2021/03/29 06:25:07;;;;;;;9.90;4.80;;;8.80;63.50;;;;;;4942255;29;20523;-72
2021/03/29 06:27:43;;;;;;;11.30;6.20;;;8.90;63.10;;;;;;4956497;28;20463;-72
2021/03/29 06:30:28;;;;;;;9.50;4.60;;;9.10;62.30;;;;;;4937079;29;21266;-71
2021/03/29 06:33:15;;;;;;;14.33;3.80;;;9.30;61.90;;;;;;4939423;28;20437;-72
2021/03/29 06:35:48;;;;;;;10.23;4.20;;;9.40;61.00;;;;;;5017839;28;20456;-72
2021/03/29 06:38:17;;;;;;;9.07;4.27;;;9.50;60.90;;;;;;5018771;28;20476;-73
2021/03/29 06:40:46;;;;;;;7.33;3.90;;;9.60;60.70;;;;;;4999061;28;20442;-71
2021/03/29 06:43:24;;;;;;;11.17;3.83;;;9.70;60.00;;;;;;5004255;28;20426;-73
2021/03/29 06:45:52;;;;;;;7.80;4.20;;;9.90;59.50;;;;;;5004651;28;21259;-72
2021/03/29 06:48:24;;;;;;;7.63;4.03;;;10.00;59.20;;;;;;5004604;28;20440;-72
2021/03/29 06:51:05;;;;;;;7.33;3.80;;;10.10;58.80;;;;;;5067943;28;20537;-72
2021/03/29 06:53:31;;;;;;;9.20;4.03;;;10.30;58.40;;;;;;5076786;28;20448;-72
2021/03/29 06:56:16;;;;;;;7.23;3.93;;;10.30;57.80;;;;;;5069899;28;20442;-72
2021/03/29 06:58:42;;;;;;;22.93;9.70;;;10.30;57.60;;;;;;5069727;28;20204;-71
2021/03/29 07:01:15;;;;;;;13.07;5.40;;;10.50;57.30;;;;;;5070001;28;21128;-72
2021/03/29 07:03:42;;;;;;;9.30;4.43;;;10.60;57.00;;;;;;5064787;28;20196;-71
2021/03/29 07:06:09;;;;;;;9.60;5.90;;;10.60;56.80;;;;;;5073430;28;20461;-72
2021/03/29 07:08:35;;;;;;;18.27;5.67;;;10.70;58.10;;;;;;5071874;28;20446;-70
2021/03/29 07:11:01;;;;;;;13.33;6.40;;;10.70;58.70;;;;;;5072995;28;20429;-71
2021/03/29 07:13:31;;;;;;;12.73;6.20;;;10.80;58.70;;;;;;5073368;28;20421;-71
2021/03/29 07:16:01;;;;;;;14.03;5.10;;;10.80;58.50;;;;;;5068595;28;21018;-70
2021/03/29 07:18:27;;;;;;;14.80;5.60;;;10.80;58.00;;;;;;5068127;28;20545;-71
2021/03/29 07:20:54;;;;;;;14.10;5.13;;;10.90;57.30;;;;;;5071423;28;20486;-72
2021/03/29 07:23:20;;;;;;;13.03;5.80;;;10.90;57.30;;;;;;5073278;28;20501;-70
2021/03/29 07:25:46;;;;;;;14.43;6.10;;;11.10;56.80;;;;;;5073398;28;20438;-71
2021/03/29 07:28:13;;;;;;;16.10;5.73;;;11.20;56.60;;;;;;5073529;28;20521;-70
2021/03/29 07:31:01;;;;;;;15.40;6.07;;;11.30;56.40;;;;;;5070274;28;20427;-75
2021/03/29 07:33:57;;;;;;;12.57;5.47;;;11.30;56.50;;;;;;5074241;28;20426;-71
2021/03/29 07:36:44;;;;;;;15.27;6.20;;;11.30;56.60;;;;;;5072020;28;20645;-72
2021/03/29 07:39:12;;;;;;;8.80;5.00;;;11.40;56.20;;;;;;5072632;28;20584;-70
2021/03/29 07:41:39;;;;;;;11.73;6.27;;;11.40;56.60;;;;;;5072770;28;20909;-71
2021/03/29 07:44:18;;;;;;;13.70;6.70;;;11.40;56.90;;;;;;5073556;28;20506;-71
2021/03/29 07:46:47;;;;;;;14.57;6.60;;;11.40;56.90;;;;;;5060768;28;20911;-73
2021/03/29 07:49:42;;;;;;;12.77;6.33;;;11.60;57.00;;;;;;5072611;28;20429;-71
2021/03/29 07:52:38;;;;;;;11.10;6.30;;;11.70;56.90;;;;;;5071239;28;20492;-73
2021/03/29 07:55:18;;;;;;;20.43;7.20;;;11.80;56.60;;;;;;5061846;28;20974;-72
2021/03/29 07:57:43;;;;;;;12.70;6.70;;;11.80;56.20;;;;;;5071709;28;20513;-71
2021/03/29 08:00:11;;;;;;;10.07;5.87;;;11.70;56.90;;;;;;5059585;28;20510;-73
2021/03/29 08:02:37;;;;;;;14.70;6.73;;;11.60;57.20;;;;;;5069866;28;20211;-72
2021/03/29 08:05:06;;;;;;;9.30;5.90;;;11.70;57.40;;;;;;5070150;28;21046;-71
2021/03/29 08:07:44;;;;;;;11.33;5.80;;;11.80;57.20;;;;;;5070129;28;20435;-71
2021/03/29 08:10:12;;;;;;;12.97;6.50;;;12.00;56.40;;;;;;5072183;28;20422;-73
2021/03/29 08:12:59;;;;;;;12.40;6.40;;;12.20;55.80;;;;;;5072137;28;20429;-70
2021/03/29 08:16:04;;;;;;;16.07;5.97;;;12.20;54.80;;;;;;5071187;28;20495;-71
2021/03/29 08:19:12;;;;;;;12.73;6.13;;;12.40;54.20;;;;;;5071603;28;20466;-71
2021/03/29 08:21:55;;;;;;;18.93;6.83;;;12.50;54.40;;;;;;5068610;28;20536;-71
2021/03/29 08:24:30;;;;;;;13.30;5.93;;;12.60;53.70;;;;;;5067155;28;20976;-72
2021/03/29 08:26:58;;;;;;;16.63;6.63;;;12.70;53.40;;;;;;5069992;28;20417;-71
2021/03/29 08:29:29;;;;;;;14.00;6.87;;;12.70;53.40;;;;;;5072080;28;20417;-72
2021/03/29 08:32:10;;;;;;;9.70;5.60;;;12.80;53.30;;;;;;5071735;28;20479;-72
2021/03/29 08:34:57;;;;;;;17.07;5.90;;;12.90;52.60;;;;;;5071503;28;20449;-71
2021/03/29 08:37:43;;;;;;;9.63;4.90;;;13.00;52.50;;;;;;5071699;28;20436;-70
2021/03/29 08:40:14;;;;;;;16.63;5.70;;;13.20;52.00;;;;;;5071085;28;20947;-73
2021/03/29 08:42:42;;;;;;;12.23;6.20;;;13.30;51.60;;;;;;5071439;28;20521;-72
2021/03/29 08:45:11;;;;;;;14.10;5.73;;;13.40;51.20;;;;;;5071455;28;20511;-69
2021/03/29 08:47:39;;;;;;;16.73;5.60;;;13.60;51.20;;;;;;5071509;28;20410;-71
2021/03/29 08:50:39;;;;;;;16.43;6.03;;;13.70;50.90;;;;;;5071359;28;20422;-71
2021/03/29 08:53:07;;;;;;;11.50;6.00;;;13.80;49.80;;;;;;5029752;28;20478;-73
2021/03/29 08:55:39;;;;;;;11.57;5.50;;;13.80;49.80;;;;;;5029126;28;20440;-73
2021/03/29 08:58:06;;;;;;;14.90;5.37;;;14.00;49.00;;;;;;5031988;28;20986;-73
2021/03/29 09:00:37;;;;;;;12.20;5.50;;;14.20;49.00;;;;;;5012825;28;20492;-71
2021/03/29 09:03:03;;;;;;;9.67;4.87;;;14.30;47.50;;;;;;5029240;28;20867;-72
2021/03/29 09:05:30;;;;;;;8.17;4.80;;;14.40;47.50;;;;;;5028789;28;20941;-72
2021/03/29 09:08:10;;;;;;;9.83;4.97;;;14.50;47.30;;;;;;5026441;28;20432;-71
2021/03/29 09:10:36;;;;;;;7.97;3.40;;;14.70;46.30;;;;;;5029193;28;20896;-74
2021/03/29 09:13:06;;;;;;;7.03;3.07;;;14.80;45.80;;;;;;5013568;28;20433;-72
2021/03/29 09:15:45;;;;;;;12.33;3.20;;;14.90;44.20;;;;;;5013544;28;20993;-71
2021/03/29 09:18:13;;;;;;;7.57;2.73;;;15.10;43.70;;;;;;5031830;28;20514;-72
2021/03/29 09:20:52;;;;;;;14.17;3.17;;;15.20;43.20;;;;;;5031724;28;20435;-72
2021/03/29 09:23:20;;;;;;;7.23;3.00;;;15.20;43.50;;;;;;5031824;28;20425;-70
2021/03/29 09:25:48;;;;;;;10.47;4.30;;;15.30;43.10;;;;;;5032969;28;20449;-70
2021/03/29 09:31:15;;;;;;;9.90;4.80;;;15.50;45.10;;;;;;5073027;28;20433;-71
2021/03/29 09:33:42;;;;;;;9.33;3.43;;;15.50;45.00;;;;;;5070842;28;20429;-70
2021/03/29 09:36:10;;;;;;;11.93;3.47;;;15.50;43.00;;;;;;5069004;28;20457;-72
2021/03/29 09:38:39;;;;;;;6.27;2.90;;;15.60;42.40;;;;;;5071127;28;20477;-73
2021/03/29 09:41:14;;;;;;;6.53;3.03;;;15.70;42.20;;;;;;5070933;28;20417;-73
2021/03/29 09:43:44;;;;;;;9.87;3.57;;;15.80;42.00;;;;;;5070980;28;20463;-73
2021/03/29 09:46:10;;;;;;;13.10;3.43;;;15.90;41.80;;;;;;5070173;28;20430;-72
2021/03/29 09:48:36;;;;;;;6.97;2.90;;;16.00;40.70;;;;;;5070901;28;20418;-71
2021/03/29 09:51:02;;;;;;;5.87;3.30;;;16.10;41.10;;;;;;5073054;28;20846;-71
2021/03/29 09:53:33;;;;;;;8.60;3.00;;;16.20;41.50;;;;;;5075749;28;20270;-71
2021/03/29 09:56:02;;;;;;;9.47;3.80;;;16.20;41.20;;;;;;5075817;28;20519;-74
2021/03/29 09:58:39;;;;;;;6.77;3.73;;;16.30;41.40;;;;;;5074741;28;20476;-72
2021/03/29 10:01:23;;;;;;;7.73;3.70;;;16.30;41.80;;;;;;5058950;28;20504;-72
2021/03/29 10:04:00;;;;;;;8.40;3.13;;;16.40;42.00;;;;;;5066766;28;20437;-71
2021/03/29 10:06:30;;;;;;;12.50;3.87;;;16.40;41.00;;;;;;5072600;28;20450;-72
2021/03/29 10:09:06;;;;;;;7.43;3.13;;;16.40;40.70;;;;;;5070823;28;20446;-72
2021/03/29 10:11:49;;;;;;;5.23;2.90;;;16.50;40.70;;;;;;5067022;28;20422;-71
2021/03/29 10:14:16;;;;;;;3.60;2.10;;;16.60;40.70;;;;;;5071460;28;20428;-71
2021/03/29 10:16:50;;;;;;;6.33;2.60;;;16.60;38.70;;;;;;5068432;28;20430;-72
2021/03/29 10:19:19;;;;;;;6.90;2.40;;;16.70;38.20;;;;;;5071977;28;20464;-71
2021/03/29 10:22:08;;;;;;;5.83;2.27;;;16.70;37.10;;;;;;5070393;28;20424;-71
2021/03/29 10:24:56;;;;;;;4.73;2.50;;;16.90;36.60;;;;;;5070270;28;20804;-72
2021/03/29 10:27:22;;;;;;;6.00;3.60;;;16.80;37.00;;;;;;5053722;28;20434;-73
2021/03/29 10:29:48;;;;;;;8.10;3.93;;;16.90;38.40;;;;;;5064986;28;20934;-72
2021/03/29 10:32:21;;;;;;;17.30;5.13;;;17.10;40.40;;;;;;5069725;28;20463;-73
2021/03/29 10:34:49;;;;;;;8.00;3.30;;;17.20;41.00;;;;;;5068469;28;20486;-72
2021/03/29 10:37:27;;;;;;;9.40;3.67;;;17.20;40.80;;;;;;5069298;28;20441;-72
2021/03/29 10:39:55;;;;;;;10.30;3.13;;;17.30;40.20;;;;;;5073680;28;20818;-70
2021/03/29 10:42:25;;;;;;;4.83;2.80;;;17.20;39.20;;;;;;5089965;28;20558;-71
2021/03/29 10:44:53;;;;;;;13.60;5.10;;;17.30;39.00;;;;;;5074072;28;20565;-70
2021/03/29 10:47:19;;;;;;;7.00;3.47;;;17.50;40.00;;;;;;5074567;28;20935;-70
2021/03/29 10:49:45;;;;;;;6.73;4.27;;;17.70;39.60;;;;;;5074104;28;20421;-71
2021/03/29 10:52:11;;;;;;;4.70;3.40;;;17.90;38.80;;;;;;5069501;28;20454;-72
2021/03/29 10:54:38;;;;;;;5.77;3.57;;;18.10;38.40;;;;;;5075660;28;20550;-70
2021/03/29 10:57:04;;;;;;;10.13;3.17;;;18.40;37.80;;;;;;5076360;28;20425;-70
2021/03/29 10:59:30;;;;;;;11.77;3.33;;;18.80;37.00;;;;;;5067953;28;20496;-71
2021/03/29 11:01:57;;;;;;;7.33;3.33;;;19.00;36.40;;;;;;5070307;28;20487;-73
2021/03/29 11:04:24;;;;;;;5.80;3.30;;;19.20;36.40;;;;;;5074007;28;20438;-72
2021/03/29 11:06:50;;;;;;;6.50;2.80;;;19.50;35.30;;;;;;5070867;28;20422;-71
2021/03/29 11:09:15;;;;;;;12.20;3.50;;;19.40;34.70;;;;;;5088684;28;20430;-71
2021/03/29 11:11:41;;;;;;;17.53;3.70;;;19.50;34.80;;;;;;5072539;28;20656;-72
2021/03/29 11:14:07;;;;;;;8.67;2.83;;;19.50;34.70;;;;;;5072930;28;20646;-72
2021/03/29 11:16:34;;;;;;;11.07;3.70;;;19.60;32.00;;;;;;5072060;28;20215;-73
2021/03/29 11:19:00;;;;;;;10.20;5.70;;;19.90;32.80;;;;;;5075900;28;20222;-71
2021/03/29 11:21:26;;;;;;;7.07;3.13;;;20.20;32.40;;;;;;5074100;28;20515;-72
2021/03/29 11:23:51;;;;;;;4.97;2.73;;;20.60;29.80;;;;;;5073142;28;20188;-77
2021/03/29 11:26:17;;;;;;;4.73;2.70;;;20.70;29.50;;;;;;5071064;28;20481;-73
2021/03/29 11:28:43;;;;;;;5.17;3.10;;;20.80;29.60;;;;;;5072650;28;20522;-72
2021/03/29 11:31:09;;;;;;;7.97;3.10;;;21.10;29.50;;;;;;5072419;28;20190;-72
2021/03/29 11:33:35;;;;;;;6.10;3.00;;;21.30;29.80;;;;;;5072943;28;20661;-71
2021/03/29 11:36:01;;;;;;;6.47;3.07;;;21.30;30.30;;;;;;5071811;28;20448;-73
2021/03/29 11:38:27;;;;;;;8.70;3.07;;;21.20;30.50;;;;;;5073278;28;20511;-71
2021/03/29 11:40:54;;;;;;;6.53;2.67;;;21.30;30.30;;;;;;5073208;28;20910;-74
2021/03/29 11:43:20;;;;;;;8.47;3.40;;;21.20;30.30;;;;;;5072737;28;20188;-72
2021/03/29 11:45:46;;;;;;;7.20;3.13;;;21.10;29.70;;;;;;5073141;28;20476;-73
2021/03/29 11:48:12;;;;;;;6.63;3.10;;;21.20;29.30;;;;;;5072614;28;20538;-71
2021/03/29 11:50:38;;;;;;;8.53;3.17;;;21.10;29.60;;;;;;5071904;28;20444;-72
2021/03/29 11:53:04;;;;;;;9.03;2.90;;;21.40;29.60;;;;;;5073189;28;20959;-71
2021/03/29 11:55:30;;;;;;;4.93;2.97;;;21.20;28.40;;;;;;5071107;28;20538;-72
2021/03/29 11:57:56;;;;;;;8.03;3.00;;;20.80;29.20;;;;;;5070264;28;20816;-72
2021/03/29 12:00:36;;;;;;;4.90;2.87;;;20.50;29.60;;;;;;5058852;28;20421;-72
2021/03/29 12:05:53;;;;;;;5.60;2.80;;;20.70;28.40;;;;;;5071697;28;20519;-72
2021/03/29 12:08:36;;;;;;;5.50;2.97;;;20.50;27.10;;;;;;5071423;28;20447;-72
2021/03/29 12:13:46;;;;;;;6.80;2.80;;;20.70;27.50;;;;;;5073740;28;20470;-73
2021/03/29 12:16:14;;;;;;;3.60;2.20;;;21.10;27.00;;;;;;5073059;28;20471;-72
2021/03/29 12:18:53;;;;;;;5.23;2.93;;;21.30;26.60;;;;;;5074486;28;20461;-71
2021/03/29 12:21:37;;;;;;;3.43;2.00;;;21.40;26.30;;;;;;5071369;28;20434;-72
2021/03/29 12:24:08;;;;;;;6.00;2.53;;;21.50;26.10;;;;;;5079906;28;20448;-73
2021/03/29 12:26:35;;;;;;;5.77;2.60;;;21.30;26.20;;;;;;5074782;28;20436;-71
2021/03/29 12:29:05;;;;;;;6.97;2.57;;;21.20;26.40;;;;;;5073420;28;20481;-73
2021/03/29 12:31:34;;;;;;;5.93;3.20;;;21.40;26.40;;;;;;5071162;28;20500;-72
2021/03/29 12:34:00;;;;;;;5.73;2.43;;;21.70;26.10;;;;;;5073711;28;20739;-72
2021/03/29 12:36:32;;;;;;;5.20;2.60;;;21.80;25.90;;;;;;5067070;28;20446;-71
2021/03/29 12:39:25;;;;;;;3.40;2.40;;;22.00;26.00;;;;;;5062396;28;20540;-72
2021/03/29 12:41:49;;;;;;;3.07;2.10;;;22.50;25.60;;;;;;5058388;28;20931;-74
2021/03/29 12:44:17;;;;;;;6.23;1.90;;;22.80;24.80;;;;;;5071622;28;20421;-73
2021/03/29 12:46:48;;;;;;;6.03;2.30;;;23.00;24.70;;;;;;5067196;28;20429;-72
2021/03/29 12:49:15;;;;;;;4.73;2.20;;;23.20;24.90;;;;;;5068128;28;20424;-72
2021/03/29 12:51:42;;;;;;;5.77;2.60;;;23.30;24.10;;;;;;5070547;28;20522;-72
2021/03/29 12:54:15;;;;;;;4.93;2.17;;;23.50;24.30;;;;;;5073368;28;20427;-73
2021/03/29 12:56:44;;;;;;;5.30;2.30;;;23.70;24.10;;;;;;5072173;28;20506;-71
2021/03/29 12:59:10;;;;;;;4.47;2.20;;;23.50;23.90;;;;;;5068649;28;20461;-72
2021/03/29 13:01:39;;;;;;;5.67;2.20;;;22.80;24.40;;;;;;5060213;28;20431;-71
2021/03/29 13:04:49;;;;;;;4.00;2.40;;;22.30;24.80;;;;;;5071297;28;20414;-72
2021/03/29 13:07:20;;;;;;;6.20;2.30;;;22.30;24.60;;;;;;5065408;28;20774;-72
2021/03/29 13:10:00;;;;;;;4.47;2.50;;;22.80;24.60;;;;;;5066318;28;20441;-71
2021/03/29 13:12:27;;;;;;;6.00;2.30;;;23.10;24.30;;;;;;5069361;28;20774;-72
2021/03/29 13:15:12;;;;;;;3.70;2.50;;;23.40;24.20;;;;;;5069949;28;20508;-73
2021/03/29 13:17:42;;;;;;;4.53;2.60;;;23.80;23.90;;;;;;5070100;28;20421;-72
2021/03/29 13:20:13;;;;;;;3.63;2.30;;;23.70;23.90;;;;;;5067511;28;21058;-71